地図

経路データ

SID SEASON NUMBER BASIN SUBBASIN NAME ISO_TIME NATURE LAT LON WMO_WIND WMO_PRES WMO_AGENCY TRACK_TYPE DIST2LAND LANDFALL IFLAG USA_AGENCY USA_ATCF_ID USA_LAT USA_LON USA_RECORD USA_STATUS USA_WIND USA_PRES USA_SSHS USA_R34_NE USA_R34_SE USA_R34_SW USA_R34_NW USA_R50_NE USA_R50_SE USA_R50_SW USA_R50_NW USA_R64_NE USA_R64_SE USA_R64_SW USA_R64_NW USA_POCI USA_ROCI USA_RMW USA_EYE TOKYO_LAT TOKYO_LON TOKYO_GRADE TOKYO_WIND TOKYO_PRES TOKYO_R50_DIR TOKYO_R50_LONG TOKYO_R50_SHORT TOKYO_R30_DIR TOKYO_R30_LONG TOKYO_R30_SHORT TOKYO_LAND CMA_LAT CMA_LON CMA_CAT CMA_WIND CMA_PRES HKO_LAT HKO_LON HKO_CAT HKO_WIND HKO_PRES NEWDELHI_LAT NEWDELHI_LON NEWDELHI_GRADE NEWDELHI_WIND NEWDELHI_PRES NEWDELHI_CI NEWDELHI_DP NEWDELHI_POCI REUNION_LAT REUNION_LON REUNION_TYPE REUNION_WIND REUNION_PRES REUNION_TNUM REUNION_CI REUNION_RMW REUNION_R34_NE REUNION_R34_SE REUNION_R34_SW REUNION_R34_NW REUNION_R50_NE REUNION_R50_SE REUNION_R50_SW REUNION_R50_NW REUNION_R64_NE REUNION_R64_SE REUNION_R64_SW REUNION_R64_NW BOM_LAT BOM_LON BOM_TYPE BOM_WIND BOM_PRES BOM_TNUM BOM_CI BOM_RMW BOM_R34_NE BOM_R34_SE BOM_R34_SW BOM_R34_NW BOM_R50_NE BOM_R50_SE BOM_R50_SW BOM_R50_NW BOM_R64_NE BOM_R64_SE BOM_R64_SW BOM_R64_NW BOM_ROCI BOM_POCI BOM_EYE BOM_POS_METHOD BOM_PRES_METHOD NADI_LAT NADI_LON NADI_CAT NADI_WIND NADI_PRES WELLINGTON_LAT WELLINGTON_LON WELLINGTON_WIND WELLINGTON_PRES DS824_LAT DS824_LON DS824_STAGE DS824_WIND DS824_PRES TD9636_LAT TD9636_LON TD9636_STAGE TD9636_WIND TD9636_PRES TD9635_LAT TD9635_LON TD9635_WIND TD9635_PRES TD9635_ROCI NEUMANN_LAT NEUMANN_LON NEUMANN_CLASS NEUMANN_WIND NEUMANN_PRES MLC_LAT MLC_LON MLC_CLASS MLC_WIND MLC_PRES USA_GUST BOM_GUST BOM_GUST_PER REUNION_GUST REUNION_GUST_PER USA_SEAHGT USA_SEARAD_NE USA_SEARAD_SE USA_SEARAD_SW USA_SEARAD_NW STORM_SPEED STORM_DIR
1963067S21199 1963 27 SP MM NOT_NAMED 1963-03-07 12:00:00 TS -20.6000 -161.200 main 1393 1387 O________OO_O_ jtwc_sh SH381963 -20.6000 -161.200 -1 -20.6000 198.800 TC 65 -20.6000 -161.200 4 -20.6000 -161.200 TC 20 5 22
1963067S21199 1963 27 SP MM NOT_NAMED 1963-03-07 15:00:00 TS -20.3571 -161.096 main 1391 1380 P________PP_P_ SH381963 -20.3576 -161.062 -1 -20.3576 -161.062 TC 65 -20.3607 -161.128 4 -20.3526 -161.133 TC 20 5 16
1963067S21199 1963 27 SP MM NOT_NAMED 1963-03-07 18:00:00 TS -20.1018 -161.049 main 1383 1358 O________OP_O_ jtwc_sh SH381963 -20.1000 -161.000 -1 -20.1000 199.000 TC 65 -20.1071 -161.096 4 -20.1000 -161.100 TC 20 5 0
1963067S21199 1963 27 SP MM NOT_NAMED 1963-03-07 21:00:00 TS -19.8212 -161.107 main 1358 1324 P________PP_P_ SH381963 -19.8149 -161.075 -1 -19.8149 -161.075 TC 65 -19.8250 -161.140 4 -19.8299 -161.140 TC 22 7 339
1963067S21199 1963 27 SP MM NOT_NAMED 1963-03-08 00:00:00 TS -19.5000 -161.300 main 1324 1276 O________OO_O_ jtwc_sh SH381963 -19.5000 -161.300 -1 -19.5000 198.700 TC 65 -19.5000 -161.300 4 -19.5000 -161.300 TC 25 9 325
1963067S21199 1963 27 SP MM NOT_NAMED 1963-03-08 03:00:00 TS -19.1212 -161.625 main 1276 1223 P________PP_P_ SH381963 -19.1575 -161.655 -1 -19.1575 -161.655 TC 65 -19.1272 -161.599 4 -19.0424 -161.590 TC 25 10 317
1963067S21199 1963 27 SP MM NOT_NAMED 1963-03-08 06:00:00 TS -18.7351 -162.052 main 1209 1157 O________OP_O_ jtwc_sh SH381963 -18.8000 -162.100 -1 -18.8000 197.900 TC 65 -18.7404 -162.010 4 -18.6000 -162.000 TC 25 11 312
1963067S21199 1963 27 SP MM NOT_NAMED 1963-03-08 09:00:00 TS -18.3764 -162.509 main 1157 1095 P________PP_P_ SH381963 -18.4124 -162.535 -1 -18.4124 -162.535 TC 65 -18.3833 -162.490 4 -18.2975 -162.477 TC 27 11 305
1963067S21199 1963 27 SP MM NOT_NAMED 1963-03-08 12:00:00 TS -18.1000 -163.000 main 1095 1042 O________OO_O_ jtwc_sh SH381963 -18.1000 -163.000 -1 -18.1000 197.000 TC 65 -18.1000 -163.000 4 -18.1000 -163.000 TC 30 10 294
1963067S21199 1963 27 SP MM NOT_NAMED 1963-03-08 15:00:00 TS -17.9534 -163.492 main 1042 989 P________PP_P_ SH381963 -17.9549 -163.492 -1 -17.9549 -163.492 TC 65 -17.9338 -163.486 4 -17.9699 -163.500 TC 32 10 283
1963067S21199 1963 27 SP MM NOT_NAMED 1963-03-08 18:00:00 TS -17.8863 -163.998 main 989 937 O________OP_O_ jtwc_sh SH381963 -17.9000 -164.000 -1 -17.9000 196.000 TC 65 -17.8451 -163.991 4 -17.9000 -164.000 TC 35 10 277
1963067S21199 1963 27 SP MM NOT_NAMED 1963-03-08 21:00:00 TS -17.8284 -164.506 main 937 891 P________PP_P_ SH381963 -17.8349 -164.507 -1 -17.8349 -164.507 TC 65 -17.8088 -164.502 4 -17.8349 -164.507 TC 35 10 275
1963067S21199 1963 27 SP MM NOT_NAMED 1963-03-09 00:00:00 TS -17.8000 -165.000 main 891 854 O________OO_O_ jtwc_sh SH381963 -17.8000 -165.000 -1 -17.8000 195.000 TC 65 -17.8000 -165.000 4 -17.8000 -165.000 TC 35 9 272
1963067S21199 1963 27 SP MM NOT_NAMED 1963-03-09 03:00:00 TS -17.7938 -165.459 main 845 809 P________PP_P_ SH381963 -17.7923 -165.457 -1 -17.7923 -165.457 TC 65 -17.7983 -165.464 4 -17.7923 -165.457 TC 35 9 270
1963067S21199 1963 27 SP MM NOT_NAMED 1963-03-09 06:00:00 TS -17.8036 -165.904 main 809 773 O________OP_O_ jtwc_sh SH381963 -17.8000 -165.900 -1 -17.8000 194.100 TC 65 -17.8144 -165.914 4 -17.8000 -165.900 TC 35 9 268
1963067S21199 1963 27 SP MM NOT_NAMED 1963-03-09 09:00:00 TS -17.8170 -166.352 main 765 730 P________PP_P_ SH381963 -17.8149 -166.350 -1 -17.8149 -166.350 TC 65 -17.8233 -166.357 4 -17.8149 -166.350 TC 37 9 270
1963067S21199 1963 27 SP MM NOT_NAMED 1963-03-09 12:00:00 TS -17.8000 -166.800 main 730 690 O________OO_O_ jtwc_sh SH381963 -17.8000 -166.800 -1 -17.8000 193.200 TC 65 -17.8000 -166.800 4 -17.8000 -166.800 TC 40 9 276
1963067S21199 1963 27 SP MM NOT_NAMED 1963-03-09 15:00:00 TS -17.7256 -167.251 main 682 642 P________PP_P_ SH381963 -17.7224 -167.250 -1 -17.7224 -167.250 TC 65 -17.7351 -167.254 4 -17.7224 -167.250 TC 42 9 283
1963067S21199 1963 27 SP MM NOT_NAMED 1963-03-09 18:00:00 TS -17.6080 -167.702 main 642 603 O________OP_O_ jtwc_sh SH381963 -17.6000 -167.700 -1 -17.6000 192.300 TC 65 -17.6322 -167.707 4 -17.6000 -167.700 TC 45 9 286
1963067S21199 1963 27 SP MM NOT_NAMED 1963-03-09 21:00:00 TS -17.4820 -168.153 main 595 549 P________PP_P_ SH381963 -17.4799 -168.150 -1 -17.4799 -168.150 TC 65 -17.4882 -168.157 4 -17.4799 -168.157 TC 47 9 290
1963067S21199 1963 27 SP MM NOT_NAMED 1963-03-10 00:00:00 TS -17.3000 -168.600 main 549 496 O________OO_O_ jtwc_sh SH381963 -17.3000 -168.600 -1 -17.3000 191.400 TC 65 -17.3000 -168.600 4 -17.3000 -168.600 TC 50 10 299
1963067S21199 1963 27 SP MM NOT_NAMED 1963-03-10 03:00:00 TS -17.0168 -169.029 main 496 442 P________PP_P_ SH381963 -17.0149 -169.058 -1 -17.0149 -169.058 TC 65 -17.0226 -169.000 4 -17.0148 -169.000 TC 50 10 306
1963067S21199 1963 27 SP MM NOT_NAMED 1963-03-10 06:00:00 TS -16.7028 -169.450 main 442 388 O________OP_O_ jtwc_sh SH381963 -16.7000 -169.500 -1 -16.7000 190.500 TC 65 -16.7112 -169.399 4 -16.7000 -169.400 TC 50 10 307
1963067S21199 1963 27 SP MM NOT_NAMED 1963-03-10 09:00:00 TS -16.4196 -169.847 main 388 337 P________PP_P_ SH381963 -16.4197 -169.877 -1 -16.4197 -169.877 TC 65 -16.4193 -169.822 4 -16.4197 -169.812 TC 52 10 302
1963067S21199 1963 27 SP MM NOT_NAMED 1963-03-10 12:00:00 TS -16.2000 -170.300 main 337 292 O________OO_O_ jtwc_sh SH381963 -16.2000 -170.300 -1 -16.2000 189.700 TC 65 -16.2000 -170.300 4 -16.2000 -170.300 TC 55 11 290
1963067S21199 1963 27 SP MM NOT_NAMED 1963-03-10 15:00:00 TS -16.0580 -170.889 main 292 257 P________PP_P_ SH381963 -16.0475 -170.863 -1 -16.0475 -170.863 TC 65 -16.0893 -170.904 4 -16.0476 -170.928 TC 57 12 279
1963067S21199 1963 27 SP MM NOT_NAMED 1963-03-10 18:00:00 TS -16.0147 -171.539 main 257 246 O________OP_O_ jtwc_sh SH381963 -16.0000 -171.500 -1 -16.0000 188.500 TC 65 -16.0588 -171.557 4 -16.0000 -171.600 TC 60 13 270
1963067S21199 1963 27 SP MM NOT_NAMED 1963-03-10 21:00:00 TS -16.0660 -172.197 main 257 257 P________PP_P_ SH381963 -16.0551 -172.172 -1 -16.0551 -172.172 TC 65 -16.0987 -172.207 4 -16.0550 -172.237 TC 60 12 261
1963067S21199 1963 27 SP MM NOT_NAMED 1963-03-11 00:00:00 TS -16.2000 -172.800 main 269 269 O________OO_O_ jtwc_sh SH381963 -16.2000 -172.800 -1 -16.2000 187.200 TC 65 -16.2000 -172.800 4 -16.2000 -172.800 TC 60 11 253
1963067S21199 1963 27 SP MM NOT_NAMED 1963-03-11 03:00:00 TS -16.3730 -173.274 main 300 300 P________PP_P_ SH381963 -16.3848 -173.295 -1 -16.3848 -173.295 TC 65 -16.3376 -173.276 4 -16.3847 -173.230 TC 60 9 245
1963067S21199 1963 27 SP MM NOT_NAMED 1963-03-11 06:00:00 TS -16.5829 -173.672 main 334 334 O________OP_O_ jtwc_sh SH381963 -16.6000 -173.700 -1 -16.6000 186.300 TC 65 -16.5315 -173.690 4 -16.6000 -173.600 TC 60 9 241
1963067S21199 1963 27 SP MM NOT_NAMED 1963-03-11 09:00:00 TS -16.7898 -174.049 main 367 367 P________PP_P_ SH381963 -16.7999 -174.065 -1 -16.7999 -174.065 TC 65 -16.7597 -174.058 4 -16.8000 -174.008 TC 62 8 239
1963067S21199 1963 27 SP MM NOT_NAMED 1963-03-11 12:00:00 TS -17.0000 -174.400 main 406 406 O________OO_O_ jtwc_sh SH381963 -17.0000 -174.400 -1 -17.0000 185.600 TC 65 -17.0000 -174.400 4 -17.0000 -174.400 TC 65 8 239
1963067S21199 1963 27 SP MM NOT_NAMED 1963-03-11 15:00:00 TS -17.1967 -174.763 main 447 447 P________PP_P_ SH381963 -17.1925 -174.758 -1 -17.1925 -174.758 TC 65 -17.2096 -174.771 4 -17.1924 -174.765 TC 67 8 239
1963067S21199 1963 27 SP MM NOT_NAMED 1963-03-11 18:00:00 TS -17.4069 -175.104 main 483 483 O________OP_O_ jtwc_sh SH381963 -17.4000 -175.100 -1 -17.4000 184.900 TC 65 -17.4274 -175.118 4 -17.4000 -175.100 TC 70 8 234
1963067S21199 1963 27 SP MM NOT_NAMED 1963-03-11 21:00:00 TS -17.6460 -175.419 main 507 483 P________PP_P_ SH381963 -17.6424 -175.415 -1 -17.6424 -175.415 TC 65 -17.6565 -175.430 4 -17.6424 -175.415 TC 72 8 229
1963067S21199 1963 27 SP MM NOT_NAMED 1963-03-12 00:00:00 TS -17.9000 -175.700 main 483 458 O________OO_O_ jtwc_sh SH381963 -17.9000 -175.700 -1 -17.9000 184.300 TC 65 -17.9000 -175.700 4 -17.9000 -175.700 TC 75 7 227
1963067S21199 1963 27 SP MM NOT_NAMED 1963-03-12 03:00:00 TS -18.1450 -175.981 main 458 446 P________PP_P_ SH381963 -18.1425 -175.980 -1 -18.1425 -175.980 TC 65 -18.1523 -175.983 4 -18.1425 -175.980 TC 75 7 223
1963067S21199 1963 27 SP MM NOT_NAMED 1963-03-12 06:00:00 TS -18.4049 -176.204 main 450 445 O________OP_O_ jtwc_sh SH381963 -18.4000 -176.200 -1 -18.4000 183.800 TC 65 -18.4197 -176.214 4 -18.4000 -176.200 TC 75 7 214
1963067S21199 1963 27 SP MM NOT_NAMED 1963-03-12 09:00:00 TS -18.6893 -176.366 main 445 445 P________PP_P_ SH381963 -18.6849 -176.367 -1 -18.6849 -176.367 TC 65 -18.7023 -176.364 4 -18.6849 -176.367 TC 75 6 197
1963067S21199 1963 27 SP MM NOT_NAMED 1963-03-12 12:00:00 TS -19.0000 -176.400 main 462 462 O________OO_O_ jtwc_sh SH381963 -19.0000 -176.400 -1 -19.0000 183.600 TC 65 -19.0000 -176.400 4 -19.0000 -176.400 TC 75 7 171
1963067S21199 1963 27 SP MM NOT_NAMED 1963-03-12 15:00:00 TS -19.3473 -176.259 main 489 489 P________PP_P_ SH381963 -19.3500 -176.253 -1 -19.3500 -176.253 TC 65 -19.3392 -176.279 4 -19.3500 -176.253 TC 75 8 152
1963067S21199 1963 27 SP MM NOT_NAMED 1963-03-12 18:00:00 TS -19.6970 -176.012 main 541 541 O________OP_O_ jtwc_sh SH381963 -19.7000 -176.000 -1 -19.7000 184.000 TC 65 -19.6879 -176.049 4 -19.7000 -176.000 TC 75 8 145
1963067S21199 1963 27 SP MM NOT_NAMED 1963-03-12 21:00:00 TS -20.0232 -175.749 main 586 586 P________PP_P_ SH381963 -20.0225 -175.743 -1 -20.0225 -175.743 TC 65 -20.0175 -175.770 4 -20.0300 -175.743 TC 75 8 141
1963067S21199 1963 27 SP MM NOT_NAMED 1963-03-13 00:00:00 TS -20.3000 -175.500 main 623 623 O________OO_O_ jtwc_sh SH381963 -20.3000 -175.500 -1 -20.3000 184.500 TC 65 -20.3000 -175.500 4 -20.3000 -175.500 TC 75 6 142
1963067S21199 1963 27 SP MM NOT_NAMED 1963-03-13 03:00:00 TS -20.5142 -175.337 main 653 653 P________PP_P_ SH381963 -20.5299 -175.335 -1 -20.5299 -175.335 TC 65 -20.5244 -175.344 4 -20.4724 -175.335 TC 75 5 143
1963067S21199 1963 27 SP MM NOT_NAMED 1963-03-13 06:00:00 TS -20.6743 -175.202 main 675 675 O________OP_O_ jtwc_sh SH381963 -20.7000 -175.200 -1 -20.7000 184.800 TC 65 -20.6971 -175.207 4 -20.6000 -175.200 TC 75 4 139
1963067S21199 1963 27 SP MM NOT_NAMED 1963-03-13 09:00:00 TS -20.8134 -175.058 main 690 690 P________PP_P_ SH381963 -20.8300 -175.050 -1 -20.8300 -175.050 TC 65 -20.8213 -175.066 4 -20.7724 -175.065 TC 75 4 128
1963067S21199 1963 27 SP MM NOT_NAMED 1963-03-13 12:00:00 TS -20.9000 -174.900 main 713 713 O________OO_O_ jtwc_sh SH381963 -20.9000 -174.900 -1 -20.9000 185.100 TC 65 -20.9000 -174.900 4 -20.9000 -174.900 TC 75 3 110
1963067S21199 1963 27 SP MM NOT_NAMED 1963-03-13 15:00:00 TS -20.9175 -174.745 main 730 730 P________PP_P_ SH381963 -20.9149 -174.780 -1 -20.9149 -174.780 TC 65 -20.9176 -174.755 4 -20.9225 -174.665 TC 75 3 90
1963067S21199 1963 27 SP MM NOT_NAMED 1963-03-13 18:00:00 TS -20.8995 -174.543 main 746 746 O________OP_O_ jtwc_sh SH381963 -20.9000 -174.600 -1 -20.9000 185.400 TC 65 -20.8980 -174.571 4 -20.9000 -174.400 TC 75 4 85
1963067S21199 1963 27 SP MM NOT_NAMED 1963-03-13 21:00:00 TS -20.8833 -174.298 main 763 763 P________PP_P_ SH381963 -20.8846 -174.332 -1 -20.8846 -174.332 TC 65 -20.8795 -174.302 4 -20.8844 -174.225 TC 75 6 90
1963067S21199 1963 27 SP MM NOT_NAMED 1963-03-14 00:00:00 TS -20.9000 -173.900 main 797 797 O________OO_O_ jtwc_sh SH381963 -20.9000 -173.900 -1 -20.9000 186.100 TC 65 -20.9000 -173.900 4 -20.9000 -173.900 TC 75 10 96
1963067S21199 1963 27 SP MM NOT_NAMED 1963-03-14 03:00:00 TS -20.9768 -173.258 main 809 805 P________PP_P_ SH381963 -20.9701 -173.260 -1 -20.9701 -173.260 TC 65 -20.9963 -173.296 4 -20.9705 -173.217 TC 75 13 99
1963067S21199 1963 27 SP MM NOT_NAMED 1963-03-14 06:00:00 TS -21.1087 -172.491 main 816 816 O________OP_O_ jtwc_sh SH381963 -21.1000 -172.500 -1 -21.1000 187.500 TC 65 -21.1348 -172.563 4 -21.1000 -172.400 TC 75 15 102
1963067S21199 1963 27 SP MM NOT_NAMED 1963-03-14 09:00:00 TS -21.2901 -171.732 main 840 840 P________PP_P_ SH381963 -21.2850 -171.735 -1 -21.2850 -171.735 TC 65 -21.3056 -171.774 4 -21.2847 -171.685 TC 72 14 106
1963067S21199 1963 27 SP MM NOT_NAMED 1963-03-14 12:00:00 TS -21.5000 -171.000 main 870 870 O________OO_O_ jtwc_sh SH381963 -21.5000 -171.000 -1 -21.5000 189.000 TC 65 -21.5000 -171.000 4 -21.5000 -171.000 TC 70 13 108
1963067S21199 1963 27 SP MM NOT_NAMED 1963-03-14 15:00:00 TS -21.6934 -170.366 main 904 904 P________PP_P_ SH381963 -21.6919 -170.385 -1 -21.6919 -170.385 TC 65 -21.6977 -170.362 4 -21.6922 -170.335 TC 70 12 109
1963067S21199 1963 27 SP MM NOT_NAMED 1963-03-14 18:00:00 TS -21.9044 -169.762 main 941 941 O________OP_O_ jtwc_sh SH381963 -21.9000 -169.800 -1 -21.9000 190.200 TC 65 -21.9176 -169.749 4 -21.9000 -169.700 TC 70 12 112
1963067S21199 1963 27 SP MM NOT_NAMED 1963-03-14 21:00:00 TS -22.1451 -169.143 main 984 984 P________PP_P_ SH381963 -22.1422 -169.165 -1 -22.1422 -169.165 TC 65 -22.1539 -169.137 4 -22.1420 -169.107 TC 70 13 113
1963067S21199 1963 27 SP MM NOT_NAMED 1963-03-15 00:00:00 TS -22.4000 -168.500 main 1038 1038 O________OO_O_ jtwc_sh SH381963 -22.4000 -168.500 -1 -22.4000 191.500 TC 65 -22.4000 -168.500 4 -22.4000 -168.500 TC 70 13 112
1963067S21199 1963 27 SP MM NOT_NAMED 1963-03-15 03:00:00 TS -22.6418 -167.816 main 1088 1088 P________PP_P_ SH381963 -22.6497 -167.815 -1 -22.6497 -167.815 TC 65 -22.6178 -167.810 4 -22.6498 -167.822 TC 70 14 111
1963067S21199 1963 27 SP MM NOT_NAMED 1963-03-15 06:00:00 TS -22.8867 -167.098 main 1151 1151 O________OP_O_ jtwc_sh SH381963 -22.9000 -167.100 -1 -22.9000 192.900 TC 65 -22.8466 -167.093 4 -22.9000 -167.100 TC 70 14 110
1963067S21199 1963 27 SP MM NOT_NAMED 1963-03-15 09:00:00 TS -23.1247 -166.358 main 1206 1206 P________PP_P_ SH381963 -23.1348 -166.357 -1 -23.1348 -166.357 TC 65 -23.1020 -166.354 4 -23.1271 -166.364 TC 67 15 110
1963067S21199 1963 27 SP MM NOT_NAMED 1963-03-15 12:00:00 TS -23.4000 -165.600 main 1278 1278 O________OO_O_ jtwc_sh SH381963 -23.4000 -165.600 -1 -23.4000 194.400 TC 65 -23.4000 -165.600 4 -23.4000 -165.600 TC 65 15 114
1963067S21199 1963 27 SP MM NOT_NAMED 1963-03-15 15:00:00 TS -23.7381 -164.862 main 1347 1347 P________PP_P_ SH381963 -23.7195 -164.857 -1 -23.7195 -164.857 TC 65 -23.7358 -164.933 4 -23.7773 -164.800 TC 62 15 118
1963067S21199 1963 27 SP MM NOT_NAMED 1963-03-15 18:00:00 TS -24.1293 -164.110 main 1431 1431 O________OP_O_ jtwc_sh SH381963 -24.1000 -164.100 -1 -24.1000 195.900 TC 65 -24.1172 -164.238 4 -24.2000 -164.000 TC 60 16 121
1963067S21199 1963 27 SP MM NOT_NAMED 1963-03-15 21:00:00 TS -24.5438 -163.382 main 1511 1511 P________PP_P_ SH381963 -24.5259 -163.374 -1 -24.5259 -163.374 TC 65 -24.5403 -163.450 4 -24.5828 -163.331 TC 57 17 121
1963067S21199 1963 27 SP MM NOT_NAMED 1963-03-16 00:00:00 TS -25.0000 -162.500 main 1612 1612 O________OO_O_ jtwc_sh SH381963 -25.0000 -162.500 -1 -25.0000 197.500 TC 65 -25.0000 -162.500 4 -25.0000 -162.500 TC 55 21 117
1963067S21199 1963 27 SP MM NOT_NAMED 1963-03-16 03:00:00 TS -25.4815 -161.319 main 1734 1734 P________PP_P_ SH381963 -25.4919 -161.354 -1 -25.4919 -161.354 TC 65 -25.4563 -161.320 4 -25.4857 -161.248 TC 50 25 113
1963067S21199 1963 27 SP MM NOT_NAMED 1963-03-16 06:00:00 TS -25.9853 -159.943 main 1872 1872 O________OP_O_ jtwc_sh SH381963 -26.0000 -160.000 -1 -26.0000 200.000 TC 65 -25.9412 -159.970 4 -26.0000 -159.800 TC 45 27 112
1963067S21199 1963 27 SP MM NOT_NAMED 1963-03-16 09:00:00 TS -26.4806 -158.503 main 2012 2012 P________PP_P_ SH381963 -26.4921 -158.536 -1 -26.4921 -158.536 TC 65 -26.4550 -158.511 4 -26.4832 -158.428 TC 37 28 111
1963067S21199 1963 27 SP MM NOT_NAMED 1963-03-16 12:00:00 TS -27.0000 -157.000 main 2161 2161 O________OO_O_ jtwc_sh SH381963 -27.0000 -157.000 -1 -27.0000 203.000 TC 65 -27.0000 -157.000 4 -27.0000 -157.000 TC 30 29 112
1963067S21199 1963 27 SP MM NOT_NAMED 1963-03-16 15:00:00 TS -27.5535 -155.490 main 2318 2318 P________PP_P_ SH381963 -27.5257 -155.506 -1 -27.5257 -155.506 TC 65 -27.5782 -155.484 4 -27.5843 -155.464 TC 27 29 113
1963067S21199 1963 27 SP MM NOT_NAMED 1963-03-16 18:00:00 TS -28.1450 -153.967 main 2469 2469 O________OP_O_ jtwc_sh SH381963 -28.1000 -154.000 -1 -28.1000 206.000 TC 65 -28.1800 -153.966 4 -28.2000 -153.900 TC 25 30 114
1963067S21199 1963 27 SP MM NOT_NAMED 1963-03-16 21:00:00 TS -28.7680 -152.439 main 2641 2641 P________PP_P_ SH381963 -28.7362 -152.465 -1 -28.7362 -152.465 TC 65 -28.7920 -152.440 4 -28.8076 -152.386 TC 22 30 115
1963067S21199 1963 27 SP MM NOT_NAMED 1963-03-17 00:00:00 TS -29.4000 -150.900 main 2799 O________OO_O_ jtwc_sh SH381963 -29.4000 -150.900 -1 -29.4000 209.100 TC 65 -29.4000 -150.900 4 -29.4000 -150.900 TC 20 30 115

デジタル台風データ・検索

IBTrACS Databaseについて

本データベースは、米国NOAAが公開する1842年以降の世界の熱帯低気圧のベストトラックデータアーカイブInternational Best Track Archive for Climate Stewardship (IBTrACS)を、ウェブで閲覧しやすい形式に変換したものです。

最終更新日:2021-10-08